PBD1442 UUEE-ULLI
Flight info
| Callsign | PBD1442 |
|---|---|
| Flight time | N/A |
| Altitude | 34000 |
| Route | TOKNU3J TOKNU L4 NUDKO T561 ODATI T875 GENPA GENPA1B |
| Aircraft | B738/M-SDE2E3FGHIRWXY/LB1 |
Departure
| Time | 2026-04-30 12:57 |
|---|---|
| Airport | Sheremetyevo International Airport (UUEE) |
Arrival
| Time | N/A |
|---|---|
| Airport | Pulkovo Airport (ULLI) |
| Time | Latitude | Longitude | Altitude | Speed | Heading |
|---|---|---|---|---|---|
| 2026-04-30 12:08 | 55.97935 | 37.41194 | 638 ft | 0 kts | 255° |
| 2026-04-30 12:41 | 55.97936 | 37.41205 | 638 ft | 2 kts | 263° |
| 2026-04-30 12:41 | 55.97939 | 37.41231 | 638 ft | 2 kts | 251° |
| 2026-04-30 12:41 | 55.97943 | 37.41257 | 638 ft | 2 kts | 256° |
| 2026-04-30 12:41 | 55.97946 | 37.41283 | 638 ft | 2 kts | 254° |
| 2026-04-30 12:42 | 55.97951 | 37.41309 | 638 ft | 2 kts | 255° |
| 2026-04-30 12:42 | 55.97953 | 37.41326 | 638 ft | 2 kts | 254° |
| 2026-04-30 12:42 | 55.97962 | 37.41344 | 638 ft | 2 kts | 192° |
| 2026-04-30 12:42 | 55.97971 | 37.41345 | 638 ft | 1 kts | 162° |
| 2026-04-30 12:43 | 55.97977 | 37.41340 | 638 ft | 0 kts | 163° |
| 2026-04-30 12:49 | 55.97973 | 37.41342 | 638 ft | 1 kts | 163° |
| 2026-04-30 12:49 | 55.97961 | 37.41348 | 638 ft | 2 kts | 164° |
| 2026-04-30 12:49 | 55.97940 | 37.41359 | 638 ft | 4 kts | 165° |
| 2026-04-30 12:49 | 55.97897 | 37.41378 | 638 ft | 8 kts | 165° |
| 2026-04-30 12:50 | 55.97832 | 37.41407 | 638 ft | 11 kts | 164° |
| 2026-04-30 12:50 | 55.97747 | 37.41449 | 638 ft | 14 kts | 165° |
| 2026-04-30 12:50 | 55.97675 | 37.41545 | 638 ft | 12 kts | 132° |
| 2026-04-30 12:50 | 55.97606 | 37.41641 | 638 ft | 13 kts | 104° |
| 2026-04-30 12:51 | 55.97622 | 37.41815 | 638 ft | 15 kts | 75° |
| 2026-04-30 12:51 | 55.97652 | 37.42015 | 638 ft | 18 kts | 75° |
| 2026-04-30 12:51 | 55.97686 | 37.42246 | 638 ft | 20 kts | 75° |
| 2026-04-30 12:51 | 55.97726 | 37.42511 | 638 ft | 23 kts | 75° |
| 2026-04-30 12:52 | 55.97770 | 37.42802 | 638 ft | 25 kts | 74° |
| 2026-04-30 12:52 | 55.97819 | 37.43126 | 638 ft | 28 kts | 74° |
| 2026-04-30 12:52 | 55.97860 | 37.43407 | 638 ft | 21 kts | 76° |
| 2026-04-30 12:52 | 55.97899 | 37.43673 | 638 ft | 23 kts | 74° |
| 2026-04-30 12:53 | 55.97939 | 37.43939 | 638 ft | 12 kts | 75° |
| 2026-04-30 12:53 | 55.97918 | 37.44029 | 638 ft | 0 kts | 153° |
| 2026-04-30 12:55 | 55.97908 | 37.44035 | 638 ft | 3 kts | 160° |
| 2026-04-30 12:55 | 55.97866 | 37.44058 | 638 ft | 10 kts | 164° |
| 2026-04-30 12:55 | 55.97778 | 37.44019 | 638 ft | 18 kts | 246° |
| 2026-04-30 12:55 | 55.97771 | 37.43984 | 638 ft | 0 kts | 253° |
| 2026-04-30 12:56 | 55.97771 | 37.43982 | 638 ft | 0 kts | 253° |
| 2026-04-30 12:56 | 55.97744 | 37.43802 | 638 ft | 49 kts | 256° |
| 2026-04-30 12:57 | 55.97586 | 37.42735 | 638 ft | 124 kts | 255° |
| 2026-04-30 12:57 | 55.97312 | 37.40867 | 639 ft | 183 kts | 257° |
| 2026-04-30 12:57 | 55.96967 | 37.38540 | 1085 ft | 203 kts | 257° |
| 2026-04-30 12:57 | 55.96468 | 37.36253 | 1832 ft | 203 kts | 244° |
| 2026-04-30 12:58 | 55.95653 | 37.34056 | 2153 ft | 224 kts | 236° |
| 2026-04-30 12:58 | 55.94692 | 37.31760 | 2493 ft | 237 kts | 237° |
| 2026-04-30 12:58 | 55.93739 | 37.29335 | 3068 ft | 238 kts | 238° |
| 2026-04-30 12:58 | 55.92841 | 37.26979 | 3856 ft | 231 kts | 238° |
| 2026-04-30 12:59 | 55.91926 | 37.24617 | 4486 ft | 229 kts | 237° |
| 2026-04-30 12:59 | 55.91008 | 37.22280 | 5005 ft | 232 kts | 237° |
| 2026-04-30 12:59 | 55.90086 | 37.19922 | 5530 ft | 235 kts | 237° |
| 2026-04-30 12:59 | 55.89128 | 37.17587 | 6064 ft | 237 kts | 236° |
| 2026-04-30 13:00 | 55.88225 | 37.15025 | 6286 ft | 252 kts | 246° |
| 2026-04-30 13:00 | 55.87528 | 37.12133 | 6645 ft | 261 kts | 251° |
| 2026-04-30 13:00 | 55.86871 | 37.09078 | 6934 ft | 270 kts | 252° |
| 2026-04-30 13:00 | 55.86422 | 37.05809 | 6944 ft | 267 kts | 269° |
| 2026-04-30 13:01 | 55.86679 | 37.02582 | 7322 ft | 268 kts | 289° |
| 2026-04-30 13:01 | 55.87290 | 36.99448 | 7892 ft | 270 kts | 291° |
| 2026-04-30 13:01 | 55.87886 | 36.96281 | 7947 ft | 268 kts | 289° |
| 2026-04-30 13:01 | 55.88419 | 36.93109 | 7944 ft | 265 kts | 288° |
| 2026-04-30 13:02 | 55.88926 | 36.89932 | 7943 ft | 266 kts | 287° |
| 2026-04-30 13:02 | 55.89424 | 36.86813 | 7942 ft | 266 kts | 288° |
| 2026-04-30 13:02 | 55.89941 | 36.83608 | 7940 ft | 266 kts | 288° |
| 2026-04-30 13:02 | 55.90449 | 36.80482 | 7936 ft | 266 kts | 288° |
| 2026-04-30 13:03 | 55.90984 | 36.77302 | 7936 ft | 265 kts | 291° |
| 2026-04-30 13:03 | 55.91796 | 36.74410 | 7985 ft | 268 kts | 309° |
| 2026-04-30 13:03 | 55.93077 | 36.72049 | 8671 ft | 266 kts | 319° |
| 2026-04-30 13:03 | 55.94462 | 36.69862 | 9259 ft | 269 kts | 319° |
| 2026-04-30 13:04 | 55.95843 | 36.67594 | 9883 ft | 271 kts | 317° |
| 2026-04-30 13:04 | 55.97207 | 36.65228 | 10270 ft | 283 kts | 316° |
| 2026-04-30 13:04 | 55.98630 | 36.62696 | 10648 ft | 294 kts | 316° |
| 2026-04-30 13:04 | 56.00080 | 36.60099 | 11231 ft | 298 kts | 316° |
| 2026-04-30 13:05 | 56.01599 | 36.57585 | 11828 ft | 301 kts | 323° |
| 2026-04-30 13:05 | 56.03407 | 36.55690 | 12471 ft | 302 kts | 341° |
| 2026-04-30 13:05 | 56.05466 | 36.55026 | 13115 ft | 304 kts | 0° |
| 2026-04-30 13:06 | 56.09624 | 36.56480 | 14426 ft | 309 kts | 14° |
| 2026-04-30 13:06 | 56.11689 | 36.57461 | 15042 ft | 312 kts | 13° |
| 2026-04-30 13:06 | 56.13818 | 36.58420 | 15737 ft | 313 kts | 13° |
| 2026-04-30 13:06 | 56.15935 | 36.59388 | 16145 ft | 320 kts | 13° |
| 2026-04-30 13:07 | 56.18091 | 36.60336 | 16165 ft | 318 kts | 11° |
| 2026-04-30 13:07 | 56.20280 | 36.60776 | 16168 ft | 314 kts | 358° |
| 2026-04-30 13:07 | 56.22411 | 36.60076 | 16171 ft | 316 kts | 340° |
| 2026-04-30 13:07 | 56.24392 | 36.58209 | 16386 ft | 332 kts | 326° |
| 2026-04-30 13:08 | 56.26229 | 36.55460 | 16489 ft | 351 kts | 319° |
| 2026-04-30 13:08 | 56.28003 | 36.52381 | 16876 ft | 359 kts | 317° |
| 2026-04-30 13:08 | 56.29809 | 36.49204 | 17318 ft | 366 kts | 318° |
| 2026-04-30 13:08 | 56.31647 | 36.46020 | 17941 ft | 368 kts | 319° |
| 2026-04-30 13:09 | 56.33479 | 36.42886 | 18564 ft | 369 kts | 319° |
| 2026-04-30 13:09 | 56.35312 | 36.39666 | 19168 ft | 372 kts | 317° |
| 2026-04-30 13:09 | 56.36495 | 36.37355 | 19533 ft | 375 kts | 314° |
| 2026-04-30 13:09 | 56.38659 | 36.32409 | 20265 ft | 380 kts | 310° |
| 2026-04-30 13:10 | 56.40184 | 36.28533 | 20766 ft | 384 kts | 309° |
| 2026-04-30 13:10 | 56.41707 | 36.24548 | 21270 ft | 387 kts | 309° |
| 2026-04-30 13:10 | 56.43236 | 36.20533 | 21761 ft | 389 kts | 309° |
| 2026-04-30 13:10 | 56.44773 | 36.16526 | 22230 ft | 392 kts | 310° |
| 2026-04-30 13:11 | 56.46340 | 36.12465 | 22691 ft | 395 kts | 310° |
| 2026-04-30 13:11 | 56.47900 | 36.08439 | 23126 ft | 398 kts | 310° |
| 2026-04-30 13:11 | 56.49491 | 36.04340 | 23568 ft | 400 kts | 310° |
| 2026-04-30 13:11 | 56.51106 | 36.00178 | 24008 ft | 403 kts | 311° |
| 2026-04-30 13:12 | 56.52718 | 35.96023 | 24432 ft | 405 kts | 311° |
| 2026-04-30 13:12 | 56.54328 | 35.91864 | 24816 ft | 408 kts | 311° |
| 2026-04-30 13:12 | 56.55967 | 35.87624 | 25147 ft | 412 kts | 311° |
| 2026-04-30 13:13 | 56.59253 | 35.79101 | 25890 ft | 416 kts | 311° |
| 2026-04-30 13:13 | 56.60908 | 35.74799 | 26236 ft | 419 kts | 311° |
| 2026-04-30 13:13 | 56.64244 | 35.66097 | 26965 ft | 423 kts | 311° |
| 2026-04-30 13:14 | 56.65907 | 35.61742 | 27349 ft | 424 kts | 311° |
| 2026-04-30 13:14 | 56.67602 | 35.57293 | 27561 ft | 429 kts | 311° |
| 2026-04-30 13:14 | 56.70970 | 35.48415 | 28194 ft | 433 kts | 311° |
| 2026-04-30 13:15 | 56.72677 | 35.43901 | 28554 ft | 434 kts | 311° |
| 2026-04-30 13:15 | 56.76100 | 35.34813 | 29354 ft | 433 kts | 311° |
| 2026-04-30 13:15 | 56.77808 | 35.30260 | 29759 ft | 432 kts | 311° |
| 2026-04-30 13:16 | 56.79552 | 35.25612 | 30029 ft | 434 kts | 311° |
| 2026-04-30 13:16 | 56.81245 | 35.21095 | 30434 ft | 431 kts | 311° |
| 2026-04-30 13:16 | 56.82931 | 35.16582 | 30783 ft | 430 kts | 311° |
| 2026-04-30 13:17 | 56.86309 | 35.07526 | 31299 ft | 430 kts | 311° |
| 2026-04-30 13:17 | 56.88003 | 35.02988 | 31523 ft | 430 kts | 312° |
| 2026-04-30 13:17 | 56.91007 | 34.95860 | 31836 ft | 425 kts | 319° |
| 2026-04-30 13:18 | 56.93909 | 34.91036 | 32099 ft | 417 kts | 328° |
| 2026-04-30 13:18 | 56.98669 | 34.85093 | 32527 ft | 412 kts | 333° |
| 2026-04-30 13:18 | 57.01118 | 34.82280 | 32698 ft | 413 kts | 333° |
| 2026-04-30 13:19 | 57.03540 | 34.79503 | 32857 ft | 414 kts | 333° |
| 2026-04-30 13:19 | 57.05960 | 34.76694 | 32994 ft | 415 kts | 333° |
| 2026-04-30 13:19 | 57.08428 | 34.73795 | 33139 ft | 417 kts | 332° |
| 2026-04-30 13:19 | 57.10870 | 34.70897 | 33263 ft | 418 kts | 332° |
| 2026-04-30 13:20 | 57.13286 | 34.68005 | 33428 ft | 418 kts | 332° |
| 2026-04-30 13:20 | 57.15737 | 34.65055 | 33611 ft | 419 kts | 332° |
| 2026-04-30 13:20 | 57.18172 | 34.62113 | 33757 ft | 420 kts | 332° |
| 2026-04-30 13:20 | 57.20597 | 34.59177 | 33907 ft | 421 kts | 332° |
| 2026-04-30 13:21 | 57.23083 | 34.56159 | 34071 ft | 421 kts | 332° |
| 2026-04-30 13:21 | 57.25520 | 34.53195 | 34153 ft | 422 kts | 331° |
| 2026-04-30 13:22 | 57.32766 | 34.44346 | 34166 ft | 416 kts | 332° |
| 2026-04-30 13:22 | 57.39994 | 34.35485 | 34160 ft | 415 kts | 332° |
| 2026-04-30 13:23 | 57.47233 | 34.26572 | 34169 ft | 416 kts | 331° |
| 2026-04-30 13:24 | 57.56832 | 34.14686 | 34155 ft | 415 kts | 331° |
| 2026-04-30 13:25 | 57.66400 | 34.02754 | 34159 ft | 413 kts | 331° |
| 2026-04-30 13:26 | 57.78308 | 33.87806 | 34145 ft | 414 kts | 331° |
| 2026-04-30 13:28 | 57.90089 | 33.72639 | 34140 ft | 413 kts | 328° |
| 2026-04-30 13:28 | 57.96758 | 33.62327 | 34139 ft | 415 kts | 326° |
| 2026-04-30 13:29 | 58.05680 | 33.48446 | 34137 ft | 414 kts | 327° |
| 2026-04-30 13:31 | 58.16817 | 33.31290 | 34142 ft | 414 kts | 326° |
| 2026-04-30 13:32 | 58.27950 | 33.14028 | 34158 ft | 412 kts | 326° |
| 2026-04-30 13:33 | 58.36777 | 33.00248 | 34145 ft | 411 kts | 326° |
| 2026-04-30 13:34 | 58.43366 | 32.89891 | 33644 ft | 407 kts | 326° |
| 2026-04-30 13:34 | 58.49909 | 32.79554 | 32309 ft | 399 kts | 326° |
| 2026-04-30 13:35 | 58.52027 | 32.76192 | 31908 ft | 396 kts | 327° |
| 2026-04-30 13:35 | 58.56210 | 32.69547 | 31078 ft | 387 kts | 327° |
| 2026-04-30 13:36 | 58.60283 | 32.63056 | 30071 ft | 379 kts | 327° |
| 2026-04-30 13:36 | 58.62286 | 32.59860 | 29539 ft | 375 kts | 327° |
| 2026-04-30 13:36 | 58.66281 | 32.53472 | 28456 ft | 368 kts | 327° |
| 2026-04-30 13:37 | 58.68199 | 32.50396 | 28010 ft | 363 kts | 327° |
| 2026-04-30 13:37 | 58.72051 | 32.44207 | 26879 ft | 359 kts | 327° |
| 2026-04-30 13:38 | 58.75847 | 32.38089 | 25787 ft | 354 kts | 327° |
| 2026-04-30 13:38 | 58.77697 | 32.35104 | 25274 ft | 351 kts | 327° |
| 2026-04-30 13:38 | 58.81426 | 32.29064 | 24262 ft | 344 kts | 326° |
| 2026-04-30 13:39 | 58.85046 | 32.23184 | 23216 ft | 338 kts | 326° |
| 2026-04-30 13:39 | 58.88591 | 32.17408 | 22191 ft | 333 kts | 326° |
| 2026-04-30 13:40 | 58.90366 | 32.14514 | 21666 ft | 331 kts | 326° |
| 2026-04-30 13:40 | 58.92102 | 32.11676 | 21253 ft | 326 kts | 326° |
| 2026-04-30 13:40 | 58.93820 | 32.08863 | 20687 ft | 326 kts | 326° |
| 2026-04-30 13:40 | 58.94958 | 32.07000 | 20386 ft | 324 kts | 326° |
| 2026-04-30 13:41 | 58.97230 | 32.03273 | 19759 ft | 320 kts | 326° |
| 2026-04-30 13:41 | 58.98922 | 32.00496 | 19227 ft | 319 kts | 326° |
| 2026-04-30 13:41 | 59.00597 | 31.97742 | 18708 ft | 318 kts | 326° |
| 2026-04-30 13:41 | 59.02258 | 31.95007 | 18245 ft | 315 kts | 325° |
| 2026-04-30 13:42 | 59.03915 | 31.92274 | 17721 ft | 314 kts | 325° |
| 2026-04-30 13:42 | 59.05584 | 31.89517 | 17213 ft | 313 kts | 325° |
| 2026-04-30 13:42 | 59.08831 | 31.84143 | 16339 ft | 306 kts | 325° |
| 2026-04-30 13:43 | 59.10468 | 31.81425 | 15834 ft | 305 kts | 324° |
| 2026-04-30 13:43 | 59.12028 | 31.78701 | 15392 ft | 305 kts | 322° |
| 2026-04-30 13:43 | 59.13545 | 31.75835 | 14943 ft | 304 kts | 321° |
| 2026-04-30 13:43 | 59.15026 | 31.72949 | 14471 ft | 303 kts | 320° |
| 2026-04-30 13:44 | 59.16512 | 31.70064 | 13982 ft | 302 kts | 321° |
| 2026-04-30 13:44 | 59.17996 | 31.67214 | 13582 ft | 299 kts | 320° |
| 2026-04-30 13:44 | 59.19486 | 31.64376 | 13146 ft | 298 kts | 320° |
| 2026-04-30 13:44 | 59.20946 | 31.61603 | 12696 ft | 297 kts | 320° |
| 2026-04-30 13:45 | 59.23890 | 31.56001 | 11821 ft | 294 kts | 320° |
| 2026-04-30 13:45 | 59.25337 | 31.53239 | 11423 ft | 291 kts | 319° |
| 2026-04-30 13:45 | 59.26779 | 31.50481 | 11015 ft | 289 kts | 319° |
| 2026-04-30 13:46 | 59.28193 | 31.47770 | 10751 ft | 282 kts | 319° |
| 2026-04-30 13:46 | 59.29569 | 31.45125 | 10548 ft | 274 kts | 319° |
| 2026-04-30 13:46 | 59.30882 | 31.42600 | 10434 ft | 263 kts | 319° |
| 2026-04-30 13:46 | 59.32168 | 31.40123 | 10270 ft | 255 kts | 319° |
| 2026-04-30 13:47 | 59.33410 | 31.37735 | 10004 ft | 251 kts | 319° |
| 2026-04-30 13:47 | 59.34672 | 31.35311 | 9652 ft | 250 kts | 319° |
| 2026-04-30 13:47 | 59.35916 | 31.32915 | 9294 ft | 250 kts | 318° |
| 2026-04-30 13:47 | 59.37145 | 31.30544 | 8926 ft | 251 kts | 317° |
| 2026-04-30 13:48 | 59.38379 | 31.28157 | 8623 ft | 248 kts | 317° |
| 2026-04-30 13:48 | 59.39608 | 31.25779 | 8239 ft | 249 kts | 317° |
| 2026-04-30 13:48 | 59.40837 | 31.23399 | 7905 ft | 248 kts | 316° |
| 2026-04-30 13:48 | 59.42054 | 31.21036 | 7551 ft | 248 kts | 316° |
| 2026-04-30 13:49 | 59.43279 | 31.18658 | 7234 ft | 246 kts | 316° |
| 2026-04-30 13:49 | 59.44496 | 31.16291 | 6894 ft | 245 kts | 315° |
| 2026-04-30 13:49 | 59.45701 | 31.13946 | 6572 ft | 244 kts | 315° |
| 2026-04-30 13:49 | 59.46491 | 31.12410 | 6337 ft | 245 kts | 315° |
| 2026-04-30 13:50 | 59.48107 | 31.09259 | 5899 ft | 243 kts | 315° |
| 2026-04-30 13:50 | 59.50508 | 31.04569 | 5239 ft | 240 kts | 315° |
| 2026-04-30 13:50 | 59.51774 | 31.02546 | 5101 ft | 232 kts | 331° |
| 2026-04-30 13:51 | 59.53291 | 31.01839 | 5024 ft | 226 kts | 1° |
| 2026-04-30 13:51 | 59.54851 | 31.02274 | 4973 ft | 225 kts | 7° |
| 2026-04-30 13:51 | 59.56426 | 31.02642 | 4576 ft | 233 kts | 1° |
| 2026-04-30 13:51 | 59.57517 | 31.02720 | 4240 ft | 236 kts | 358° |
| 2026-04-30 13:52 | 59.59143 | 31.02539 | 3702 ft | 237 kts | 343° |
| 2026-04-30 13:52 | 59.60825 | 31.00041 | 3010 ft | 230 kts | 298° |
| 2026-04-30 13:52 | 59.61331 | 30.97134 | 2535 ft | 226 kts | 283° |
| 2026-04-30 13:52 | 59.61688 | 30.94207 | 2440 ft | 206 kts | 287° |
| 2026-04-30 13:53 | 59.62123 | 30.91631 | 2439 ft | 194 kts | 291° |
| 2026-04-30 13:53 | 59.62604 | 30.89183 | 2445 ft | 187 kts | 291° |
| 2026-04-30 13:53 | 59.63055 | 30.86874 | 2450 ft | 175 kts | 291° |
| 2026-04-30 13:53 | 59.63339 | 30.85381 | 2454 ft | 176 kts | 291° |
| 2026-04-30 13:54 | 59.63919 | 30.82343 | 2443 ft | 177 kts | 293° |
| 2026-04-30 13:54 | 59.64585 | 30.80392 | 2457 ft | 165 kts | 314° |
| 2026-04-30 13:54 | 59.65388 | 30.78916 | 2439 ft | 150 kts | 313° |
| 2026-04-30 13:54 | 59.65839 | 30.77946 | 2437 ft | 138 kts | 308° |
| 2026-04-30 13:55 | 59.66639 | 30.75987 | 2447 ft | 137 kts | 309° |
| 2026-04-30 13:55 | 59.67243 | 30.74563 | 2442 ft | 137 kts | 309° |
| 2026-04-30 13:55 | 59.67847 | 30.73132 | 2465 ft | 136 kts | 309° |
| 2026-04-30 13:55 | 59.68454 | 30.71687 | 2479 ft | 135 kts | 309° |
| 2026-04-30 13:56 | 59.69056 | 30.70253 | 2464 ft | 134 kts | 309° |
| 2026-04-30 13:56 | 59.69664 | 30.68810 | 2438 ft | 136 kts | 309° |
| 2026-04-30 13:56 | 59.70250 | 30.67409 | 2457 ft | 134 kts | 309° |
| 2026-04-30 13:56 | 59.70853 | 30.65975 | 2480 ft | 134 kts | 309° |
| 2026-04-30 13:57 | 59.71439 | 30.64581 | 2479 ft | 129 kts | 309° |
| 2026-04-30 13:57 | 59.72023 | 30.63184 | 2463 ft | 130 kts | 309° |
| 2026-04-30 13:57 | 59.72612 | 30.61777 | 2443 ft | 132 kts | 308° |
| 2026-04-30 13:57 | 59.73192 | 30.60395 | 2447 ft | 132 kts | 309° |
| 2026-04-30 13:58 | 59.73758 | 30.59040 | 2469 ft | 125 kts | 309° |
| 2026-04-30 13:58 | 59.74853 | 30.56358 | 2470 ft | 124 kts | 301° |
| 2026-04-30 13:58 | 59.75097 | 30.54690 | 2333 ft | 126 kts | 277° |
| 2026-04-30 13:59 | 59.75274 | 30.53010 | 2210 ft | 124 kts | 292° |